Delta, Utah Weather observations

Data are for observation ending at time listed.
 Day   Time    Ave.   Ave.  Ave.  Vector   Max.   Stn.    Total    Solar   Ave.  
  of    of     Air    Rel.  Wind   Wind    Wind   Baro.  Precip.   Rad.    Soil  
Year   Day     Temp.  Hum.  Speed  Dir.    Gust   Pres.                    Temp. 
2014   (MST)    F      %     mph   deg.    mph     mb.     in.     W/m2     F   
------------------------------------------------------------------------------
 303    2:50   37.2    54    0.3    74      1.4   866.9    0.00       0    99999.0
 303    3:00   37.0    56    0.7    84      1.1   866.8    0.00       0    99999.0
 303    3:10   37.0    55    0.9   114      1.7   866.8    0.00       0    99999.0
 303    3:20   37.1    54    1.2   102      1.7   866.8    0.00       0    99999.0
 303    3:30   37.1    54    1.6   105      2.6   866.7    0.00       0    99999.0
 303    3:40   37.0    53    1.3   101      2.2   866.6    0.00       0    99999.0
 303    3:50   37.2    53    1.7    83      2.6   866.5    0.00       0    99999.0
 303    4:00   37.4    52    2.0    75      3.1   866.5    0.00       0    99999.0
 303    4:10   37.6    51    1.8    72      2.7   866.5    0.00       0    99999.0
 303    4:20   37.9    50    1.4    74      2.3   866.5    0.00       0    99999.0
 303    4:30   38.7    49    0.8    99      1.7   866.5    0.00       0    99999.0
 303    4:40   39.1    49    0.0     0      0.0   866.6    0.00       0    99999.0
 303    4:50   39.3    50    0.4   300      1.3   866.6    0.00       0    99999.0
 303    5:00   39.5    49    0.7   213      1.5   866.7    0.00       0    99999.0
 303    5:10   38.8    51    0.9   188      1.8   866.7    0.00       0    99999.0
 303    5:20   37.7    52    0.6   162      1.8   866.7    0.00       0    99999.0
 303    5:30   37.1    54    0.1   166      0.9   866.7    0.00       0    99999.0
 303    5:40   36.6    54    0.0   165      0.4   866.8    0.00       0    99999.0
 303    5:50   36.4    54    0.0     0      0.0   866.8    0.00       0    99999.0
 303    6:00   36.5    53    0.0     0      0.0   866.7    0.00       0    99999.0
 303    6:10   36.9    54    0.0    11      0.8   866.6    0.00       0    99999.0
 303    6:20   36.9    55    0.3     2      0.8   866.5    0.00       0    99999.0
 303    6:30   36.6    56    0.1   336      1.1   866.5    0.00       0    99999.0
 303    6:40   36.1    57    1.0   351      1.8   866.5    0.00       0    99999.0
 303    6:50   35.7    58    0.0   354      0.7   866.5    0.00       0    99999.0
 303    7:00   35.4    59    0.1   342      1.0   866.5    0.00       5    99999.0
 303    7:10   35.2    59    0.3   291      1.5   866.5    0.00       6    99999.0
 303    7:20   35.5    58    0.1   292      0.9   866.6    0.00      10    99999.0
 303    7:30   35.6    58    0.3   329      1.2   866.5    0.00      13    99999.0
 303    7:40   36.0    59    1.0   352      2.0   866.5    0.00      18    99999.0
 303    7:50   36.9    56    1.1   353      1.7   866.5    0.00      30    99999.0
 303    8:00   38.0    53    0.3   289      1.5   866.6    0.00      25    99999.0
 303    8:10   39.9    50    0.5   306      1.2   866.7    0.00      25    99999.0
 303    8:20   40.9    47    0.3    84      1.9   866.8    0.00      26    99999.0
 303    8:30   41.3    53    2.0   166      3.3   866.9    0.00      25    99999.0
 303    8:40   41.3    53    1.3   168      2.8   867.0    0.00      38    99999.0
 303    8:50   41.8    49    0.8   145      2.0   867.0    0.00      33    99999.0
 303    9:00   42.9    48    1.3   142      2.0   866.9    0.00      98    99999.0
 303    9:10   44.5    46    1.5   158      2.5   866.9    0.00     182    99999.0
 303    9:20   46.7    42    1.3   154      2.3   866.9    0.00     165    99999.0
 303    9:30   47.7    41    1.0   158      2.3   866.9    0.00     125    99999.0
 303    9:40   48.6    39    1.5   137      2.6   866.9    0.00     180    99999.0
 303    9:50   50.1    36    0.9   136      2.6   866.9    0.00     141    99999.0
 303   10:00   51.4    34    1.2   139      2.6   867.0    0.00     173    99999.0
 303   10:10   52.8    34    1.7    96      3.1   866.9    0.00     148    99999.0
 303   10:20   54.0    32    1.2   111      2.5   866.8    0.00     171    99999.0
 303   10:30   54.2    32    2.4   103      3.6   866.8    0.00     229    99999.0
 303   10:40   54.8    31    1.7    78      3.8   866.8    0.00     145    99999.0
 303   10:50   55.5    30    1.6   115      4.0   866.8    0.00     298    99999.0
 303   11:00   55.8    30    2.1    88      4.2   866.7    0.00     171    99999.0
 303   11:10   56.2    29    1.9    98      4.8   866.7    0.00     240    99999.0
 303   11:20   56.9    28    2.5   100      4.5   866.6    0.00     231    99999.0
 303   11:30   57.7    28    2.3   103      3.9   866.4    0.00     229    99999.0
 303   11:40   58.3    26    2.1   153      3.9   866.3    0.00     346    99999.0
 303   11:50   59.0    27    1.4    98      3.4   866.1    0.00     242    99999.0
 303   12:00   60.0    26    1.5   171      3.9   865.9    0.00     290    99999.0
 303   12:10   60.9    24    2.1   206      3.6   865.9    0.00     263    99999.0
 303   12:20   61.4    23    1.6   222      4.3   865.8    0.00     295    99999.0
 303   12:30   62.0    23    1.8   211      3.8   865.6    0.00     434    99999.0
 303   12:40   62.7    24    1.1   223      3.7   865.5    0.00     516    99999.0
 303   12:50   63.2    25    2.2   228      4.0   865.2    0.00     473    99999.0
 303   13:00   63.5    24    1.3   195      3.7   865.1    0.00     398    99999.0
 303   13:10   64.3    22    2.1   189      4.2   865.0    0.00     350    99999.0
 303   13:20   64.3    22    1.3   136      3.1   864.8    0.00     437    99999.0
 303   13:30   65.1    24    1.6   248      4.3   864.7    0.00     481    99999.0
 303   13:40   65.3    24    1.7   224      3.7   864.6    0.00     468    99999.0
 303   13:50   65.4    23    1.4   246      3.9   864.4    0.00     456    99999.0
 303   14:00   65.6    22    1.6   253      3.3   864.2    0.00     397    99999.0
 303   14:10   65.7    22    0.6   302      2.4   864.1    0.00     193    99999.0
 303   14:20   66.9    22    1.0   152      3.1   864.0    0.00     156    99999.0
 303   14:30   66.7    20    1.6   298      3.1   864.0    0.00     166    99999.0
 303   14:40   67.2    21    0.9    39      2.3   863.8    0.00     110    99999.0
 303   14:50   67.5    20    1.2   155      3.2   863.7    0.00     118    99999.0
 303   15:00   67.4    17    2.5   123      5.0   863.6    0.00     119    99999.0
 303   15:10   67.3    18    1.0   118      2.6   863.5    0.00     104    99999.0
 303   15:20   68.0    18    0.9   222      2.3   863.4    0.00     151    99999.0
 303   15:30   68.5    18    1.3   153      3.1   863.4    0.00     175    99999.0
 303   15:40   69.0    17    0.7   359      1.7   863.2    0.00     160    99999.0
 303   15:50   70.4    17    0.1   341      1.1   863.1    0.00     151    99999.0
 303   16:00   70.0    17    0.8    66      2.4   863.1    0.00     133    99999.0
 303   16:10   68.7    17    0.7    31      1.6   863.0    0.00      76    99999.0
 303   16:20   68.3    19    0.1    79      0.8   862.9    0.00      82    99999.0
 303   16:30   69.0    20    0.2   181      1.1   862.8    0.00      70    99999.0
 303   16:40   68.2    22    0.0     0      0.0   862.7    0.00      39    99999.0
 303   16:50   66.0    25    0.0   310      0.9   862.6    0.00      31    99999.0
 303   17:00   64.2    28    0.2   307      0.9   862.6    0.00      30    99999.0
 303   17:10   63.5    30    0.0   294      0.9   862.5    0.00      26    99999.0
 303   17:20   62.7    30    0.0     0      0.0   862.4    0.00      17    99999.0
 303   17:30   61.8    32    0.2   298      0.9   862.3    0.00       9    99999.0
 303   17:40   60.5    31    0.7   343      2.8   862.4    0.00       1    99999.0
 303   17:50   59.1    33    0.0     0      0.0   862.4    0.00       0    99999.0
 303   18:00   58.0    35    0.0     0      0.0   862.3    0.00       0    99999.0
 303   18:10   57.4    34    0.0   330      0.5   862.2    0.00       0    99999.0
 303   18:20   57.1    34    0.0     0      0.0   862.3    0.00       0    99999.0
 303   18:30   56.7    33    0.2   331      1.2   862.3    0.00       0    99999.0
 303   18:40   56.0    34    0.2   332      1.3   862.4    0.00       0    99999.0
 303   18:50   55.8    34    0.3   339      1.7   862.4    0.00       0    99999.0
 303   19:00   55.6    35    0.9   344      3.7   862.4    0.00       0    99999.0
 303   19:10   55.3    36    0.2   329      0.8   862.4    0.00       0    99999.0
 303   19:20   54.6    38    0.0     0      0.0   862.4    0.00       0    99999.0
 303   19:30   54.1    38    0.0     0      0.0   862.4    0.00       0    99999.0
 303   19:40   53.8    39    0.0     0      0.0   862.4    0.00       0    99999.0
 303   19:50   53.5    39    0.0     0      0.0   862.5    0.00       0    99999.0
 303   20:00   53.8    38    0.4   306      1.6   862.5    0.00       0    99999.0
 303   20:10   54.0    37    0.3   286      1.3   862.5    0.00       0    99999.0
 303   20:20   53.8    38    1.6   130      4.4   862.4    0.00       0    99999.0
 303   20:30   51.7    39    1.6   127      2.5   862.4    0.00       0    99999.0
 303   20:40   50.5    39    1.4   133      2.4   862.4    0.00       0    99999.0
 303   20:50   50.4    36    2.3   134      3.4   862.3    0.00       0    99999.0
 303   21:00   50.1    36    1.8   137      3.2   862.3    0.00       0    99999.0
 303   21:10   49.8    35    1.3   140      3.2   862.3    0.00       0    99999.0
 303   21:20   49.4    36    0.7   120      1.7   862.3    0.00       0    99999.0
 303   21:30   49.5    37    1.4   146      2.7   862.3    0.00       0    99999.0
 303   21:40   50.1    37    2.2   153      3.9   862.2    0.00       0    99999.0
 303   21:50   50.0    38    1.6   142      4.8   862.1    0.00       0    99999.0
 303   22:00   49.6    39    2.7   145      4.6   862.1    0.00       0    99999.0
 303   22:10   49.9    38    2.5   166      3.7   862.2    0.00       0    99999.0
 303   22:20   50.0    38    1.8   176      3.1   862.2    0.00       0    99999.0
 303   22:30   49.5    39    2.1   146      3.1   862.1    0.00       0    99999.0
 303   22:40   48.8    40    1.7   141      2.5   862.0    0.00       0    99999.0
 303   22:50   48.7    40    1.0   141      1.9   861.9    0.00       0    99999.0
 303   23:00   48.5    41    1.7   126      3.0   861.8    0.00       0    99999.0
 303   23:10   49.2    39    1.5   101      2.8   861.8    0.00       0    99999.0
 303   23:20   47.8    42    1.8    79      2.6   861.8    0.00       0    99999.0
 303   23:30   46.9    42    1.3    76      2.6   861.7    0.00       0    99999.0
 303   23:40   46.7    42    0.5   328      2.0   861.8    0.00       0    99999.0
 303   23:50   46.5    42    1.3    17      2.0   861.7    0.00       0    99999.0
 304    0:00   46.2    43    1.2   348      2.0   861.6    0.00       0    99999.0
 304    0:10   45.8    44    0.1   349      0.9   861.6    0.00       0    99999.0
 304    0:20   45.6    44    0.7   325      2.0   861.5    0.00       0    99999.0
 304    0:30   45.4    44    0.1   322      0.9   861.4    0.00       0    99999.0
 304    0:40   45.3    44    0.1   324      0.8   861.3    0.00       0    99999.0
 304    0:50   45.8    44    0.3   268      1.1   861.3    0.00       0    99999.0
 304    1:00   46.2    44    1.1    41      2.5   861.3    0.00       0    99999.0
 304    1:10   45.7    45    0.9    36      2.5   861.3    0.00       0    99999.0
 304    1:20   45.4    44    0.0    56      0.4   861.3    0.00       0    99999.0
 304    1:30   45.6    45    0.2   325      1.1   861.3    0.00       0    99999.0
 304    1:40   45.4    45    0.0     0      0.0   861.3    0.00       0    99999.0
 304    1:50   45.2    45    0.8   354      2.0   861.2    0.00       0    99999.0
 304    2:00   44.9    46    0.9   353      2.2   861.2    0.00       0    99999.0
 304    2:10   44.8    46    1.1   342      2.9   861.2    0.00       0    99999.0
 304    2:20   44.5    46    0.0     0      0.0   861.2    0.00       0    99999.0
 304    2:30   44.8    46    0.2   305      1.2   861.2    0.00       0    99999.0
 304    2:40   44.6    46    0.5    53      1.3   861.1    0.00       0    99999.0

Return to Delta, Utah graphs page.


Western Regional Climate Center,wrcc@dri.edu